sensor_id;sensor_type;location;lat;lon;timestamp;P1;durP1;ratioP1;P2;durP2;ratioP2
19038;SDS011;9652;49.014;12.052;2024-01-15T00:00:17;28.13;;;14.70;;
19038;SDS011;9652;49.014;12.052;2024-01-15T00:02:45;27.90;;;14.30;;
19038;SDS011;9652;49.014;12.052;2024-01-15T00:05:13;26.67;;;15.37;;
19038;SDS011;9652;49.014;12.052;2024-01-15T00:07:40;29.03;;;14.57;;
19038;SDS011;9652;49.014;12.052;2024-01-15T00:10:09;31.73;;;15.97;;
19038;SDS011;9652;49.014;12.052;2024-01-15T00:12:36;29.20;;;15.37;;
19038;SDS011;9652;49.014;12.052;2024-01-15T00:15:03;28.87;;;14.00;;
19038;SDS011;9652;49.014;12.052;2024-01-15T00:17:31;30.27;;;13.90;;
19038;SDS011;9652;49.014;12.052;2024-01-15T00:19:58;28.50;;;15.03;;
19038;SDS011;9652;49.014;12.052;2024-01-15T00:22:25;24.40;;;14.27;;
19038;SDS011;9652;49.014;12.052;2024-01-15T00:24:53;28.97;;;14.73;;
19038;SDS011;9652;49.014;12.052;2024-01-15T00:27:21;24.87;;;14.27;;
19038;SDS011;9652;49.014;12.052;2024-01-15T00:29:48;33.20;;;16.17;;
19038;SDS011;9652;49.014;12.052;2024-01-15T00:32:17;32.73;;;16.13;;
19038;SDS011;9652;49.014;12.052;2024-01-15T00:34:44;31.63;;;16.03;;
19038;SDS011;9652;49.014;12.052;2024-01-15T00:37:11;43.33;;;18.17;;
19038;SDS011;9652;49.014;12.052;2024-01-15T00:39:38;36.60;;;17.83;;
19038;SDS011;9652;49.014;12.052;2024-01-15T00:42:05;35.30;;;16.80;;
19038;SDS011;9652;49.014;12.052;2024-01-15T00:44:34;31.27;;;15.03;;
19038;SDS011;9652;49.014;12.052;2024-01-15T00:47:01;34.60;;;16.33;;
19038;SDS011;9652;49.014;12.052;2024-01-15T00:49:28;32.70;;;15.07;;
19038;SDS011;9652;49.014;12.052;2024-01-15T00:51:55;29.73;;;14.70;;
19038;SDS011;9652;49.014;12.052;2024-01-15T00:54:22;37.90;;;15.77;;
19038;SDS011;9652;49.014;12.052;2024-01-15T00:56:49;34.17;;;15.80;;
19038;SDS011;9652;49.014;12.052;2024-01-15T00:59:16;34.90;;;15.77;;
19038;SDS011;9652;49.014;12.052;2024-01-15T01:01:47;36.20;;;14.93;;
19038;SDS011;9652;49.014;12.052;2024-01-15T01:04:14;32.37;;;15.57;;
19038;SDS011;9652;49.014;12.052;2024-01-15T01:06:41;35.43;;;15.60;;
19038;SDS011;9652;49.014;12.052;2024-01-15T01:09:08;27.90;;;15.10;;
19038;SDS011;9652;49.014;12.052;2024-01-15T01:11:35;30.67;;;15.20;;
19038;SDS011;9652;49.014;12.052;2024-01-15T01:14:02;32.17;;;14.77;;
19038;SDS011;9652;49.014;12.052;2024-01-15T01:16:29;30.23;;;15.67;;
19038;SDS011;9652;49.014;12.052;2024-01-15T01:19:05;25.67;;;13.57;;
19038;SDS011;9652;49.014;12.052;2024-01-15T01:21:32;31.07;;;14.40;;
19038;SDS011;9652;49.014;12.052;2024-01-15T01:23:59;33.60;;;15.40;;
19038;SDS011;9652;49.014;12.052;2024-01-15T01:26:26;32.27;;;16.90;;
19038;SDS011;9652;49.014;12.052;2024-01-15T01:28:53;34.27;;;15.93;;
19038;SDS011;9652;49.014;12.052;2024-01-15T01:31:20;27.57;;;14.10;;
19038;SDS011;9652;49.014;12.052;2024-01-15T01:33:48;30.67;;;14.10;;
19038;SDS011;9652;49.014;12.052;2024-01-15T01:36:16;32.33;;;15.13;;
19038;SDS011;9652;49.014;12.052;2024-01-15T01:38:43;27.80;;;12.53;;
19038;SDS011;9652;49.014;12.052;2024-01-15T01:41:10;33.53;;;14.83;;
19038;SDS011;9652;49.014;12.052;2024-01-15T01:43:37;35.47;;;14.57;;
19038;SDS011;9652;49.014;12.052;2024-01-15T01:46:04;32.03;;;14.80;;
19038;SDS011;9652;49.014;12.052;2024-01-15T01:48:32;27.50;;;14.03;;
19038;SDS011;9652;49.014;12.052;2024-01-15T01:51:00;30.07;;;13.43;;
19038;SDS011;9652;49.014;12.052;2024-01-15T01:53:31;25.27;;;13.33;;
19038;SDS011;9652;49.014;12.052;2024-01-15T01:56:01;31.43;;;15.13;;
19038;SDS011;9652;49.014;12.052;2024-01-15T01:58:30;26.43;;;13.07;;
19038;SDS011;9652;49.014;12.052;2024-01-15T02:00:59;37.67;;;15.10;;
19038;SDS011;9652;49.014;12.052;2024-01-15T02:03:26;31.37;;;13.73;;
19038;SDS011;9652;49.014;12.052;2024-01-15T02:05:54;32.50;;;13.10;;
19038;SDS011;9652;49.014;12.052;2024-01-15T02:08:22;30.73;;;14.03;;
19038;SDS011;9652;49.014;12.052;2024-01-15T02:10:51;31.90;;;13.63;;
19038;SDS011;9652;49.014;12.052;2024-01-15T02:13:18;33.10;;;14.87;;
19038;SDS011;9652;49.014;12.052;2024-01-15T02:15:46;27.60;;;13.57;;
19038;SDS011;9652;49.014;12.052;2024-01-15T02:18:13;28.93;;;13.17;;
19038;SDS011;9652;49.014;12.052;2024-01-15T02:20:40;22.47;;;11.93;;
19038;SDS011;9652;49.014;12.052;2024-01-15T02:23:11;26.47;;;13.67;;
19038;SDS011;9652;49.014;12.052;2024-01-15T02:25:39;24.97;;;13.60;;
19038;SDS011;9652;49.014;12.052;2024-01-15T02:28:09;25.07;;;12.77;;
19038;SDS011;9652;49.014;12.052;2024-01-15T02:30:38;22.70;;;12.33;;
19038;SDS011;9652;49.014;12.052;2024-01-15T02:33:07;25.87;;;12.47;;
19038;SDS011;9652;49.014;12.052;2024-01-15T02:35:36;23.07;;;12.07;;
19038;SDS011;9652;49.014;12.052;2024-01-15T02:38:03;29.07;;;11.80;;
19038;SDS011;9652;49.014;12.052;2024-01-15T02:40:32;32.17;;;12.90;;
19038;SDS011;9652;49.014;12.052;2024-01-15T02:43:00;28.73;;;13.83;;
19038;SDS011;9652;49.014;12.052;2024-01-15T02:45:27;26.10;;;13.43;;
19038;SDS011;9652;49.014;12.052;2024-01-15T02:47:54;25.97;;;12.07;;
19038;SDS011;9652;49.014;12.052;2024-01-15T02:50:21;25.37;;;12.33;;
19038;SDS011;9652;49.014;12.052;2024-01-15T02:52:48;24.37;;;10.50;;
19038;SDS011;9652;49.014;12.052;2024-01-15T02:55:15;21.23;;;10.33;;
19038;SDS011;9652;49.014;12.052;2024-01-15T02:57:44;21.60;;;10.90;;
19038;SDS011;9652;49.014;12.052;2024-01-15T03:00:11;23.57;;;11.33;;
19038;SDS011;9652;49.014;12.052;2024-01-15T03:02:39;20.77;;;10.00;;
19038;SDS011;9652;49.014;12.052;2024-01-15T03:05:10;18.77;;;10.67;;
19038;SDS011;9652;49.014;12.052;2024-01-15T03:07:37;24.50;;;11.30;;
19038;SDS011;9652;49.014;12.052;2024-01-15T03:10:05;20.77;;;10.17;;
19038;SDS011;9652;49.014;12.052;2024-01-15T03:12:33;20.70;;;10.67;;
19038;SDS011;9652;49.014;12.052;2024-01-15T03:15:01;19.43;;;10.30;;
19038;SDS011;9652;49.014;12.052;2024-01-15T03:17:29;28.73;;;11.80;;
19038;SDS011;9652;49.014;12.052;2024-01-15T03:19:56;25.77;;;11.13;;
19038;SDS011;9652;49.014;12.052;2024-01-15T03:22:23;20.77;;;10.57;;
19038;SDS011;9652;49.014;12.052;2024-01-15T03:24:52;20.50;;;9.73;;
19038;SDS011;9652;49.014;12.052;2024-01-15T03:27:19;24.67;;;11.20;;
19038;SDS011;9652;49.014;12.052;2024-01-15T03:29:46;23.03;;;10.60;;
19038;SDS011;9652;49.014;12.052;2024-01-15T03:32:15;17.53;;;9.67;;
19038;SDS011;9652;49.014;12.052;2024-01-15T03:34:42;18.87;;;9.93;;
19038;SDS011;9652;49.014;12.052;2024-01-15T03:37:09;22.03;;;11.30;;
19038;SDS011;9652;49.014;12.052;2024-01-15T03:39:36;25.33;;;11.30;;
19038;SDS011;9652;49.014;12.052;2024-01-15T03:42:03;26.00;;;11.57;;
19038;SDS011;9652;49.014;12.052;2024-01-15T03:44:30;20.00;;;11.87;;
19038;SDS011;9652;49.014;12.052;2024-01-15T03:46:57;21.97;;;10.33;;
19038;SDS011;9652;49.014;12.052;2024-01-15T03:49:26;18.67;;;9.83;;
19038;SDS011;9652;49.014;12.052;2024-01-15T03:51:53;17.53;;;9.33;;
19038;SDS011;9652;49.014;12.052;2024-01-15T03:54:20;18.83;;;9.70;;
19038;SDS011;9652;49.014;12.052;2024-01-15T03:56:47;19.33;;;10.10;;
19038;SDS011;9652;49.014;12.052;2024-01-15T03:59:14;16.47;;;9.63;;
19038;SDS011;9652;49.014;12.052;2024-01-15T04:01:41;21.40;;;10.17;;
19038;SDS011;9652;49.014;12.052;2024-01-15T04:04:15;20.07;;;8.97;;
19038;SDS011;9652;49.014;12.052;2024-01-15T04:06:44;19.93;;;11.23;;
19038;SDS011;9652;49.014;12.052;2024-01-15T04:09:11;18.43;;;9.83;;
19038;SDS011;9652;49.014;12.052;2024-01-15T04:11:40;18.23;;;10.70;;
19038;SDS011;9652;49.014;12.052;2024-01-15T04:14:07;26.23;;;11.27;;
19038;SDS011;9652;49.014;12.052;2024-01-15T04:16:34;20.30;;;10.77;;
19038;SDS011;9652;49.014;12.052;2024-01-15T04:19:01;20.07;;;8.70;;
19038;SDS011;9652;49.014;12.052;2024-01-15T04:21:28;15.13;;;9.27;;
19038;SDS011;9652;49.014;12.052;2024-01-15T04:23:56;20.40;;;10.03;;
19038;SDS011;9652;49.014;12.052;2024-01-15T04:26:23;16.47;;;9.27;;
19038;SDS011;9652;49.014;12.052;2024-01-15T04:28:50;13.97;;;8.23;;
19038;SDS011;9652;49.014;12.052;2024-01-15T04:31:22;15.83;;;8.23;;
19038;SDS011;9652;49.014;12.052;2024-01-15T04:33:52;19.30;;;9.70;;
19038;SDS011;9652;49.014;12.052;2024-01-15T04:36:19;19.60;;;9.00;;
19038;SDS011;9652;49.014;12.052;2024-01-15T04:38:46;18.80;;;10.23;;
19038;SDS011;9652;49.014;12.052;2024-01-15T04:41:15;17.87;;;10.83;;
19038;SDS011;9652;49.014;12.052;2024-01-15T04:43:43;17.63;;;10.43;;
19038;SDS011;9652;49.014;12.052;2024-01-15T04:46:10;16.03;;;9.30;;
19038;SDS011;9652;49.014;12.052;2024-01-15T04:48:37;20.63;;;10.83;;
19038;SDS011;9652;49.014;12.052;2024-01-15T04:51:04;18.60;;;9.50;;
19038;SDS011;9652;49.014;12.052;2024-01-15T04:53:32;15.73;;;9.30;;
19038;SDS011;9652;49.014;12.052;2024-01-15T04:56:01;17.47;;;9.07;;
19038;SDS011;9652;49.014;12.052;2024-01-15T04:58:29;14.70;;;9.20;;
19038;SDS011;9652;49.014;12.052;2024-01-15T05:00:56;11.93;;;7.73;;
19038;SDS011;9652;49.014;12.052;2024-01-15T05:03:23;16.87;;;8.77;;
19038;SDS011;9652;49.014;12.052;2024-01-15T05:05:50;15.00;;;8.30;;
19038;SDS011;9652;49.014;12.052;2024-01-15T05:08:18;16.03;;;9.30;;
19038;SDS011;9652;49.014;12.052;2024-01-15T05:10:45;18.63;;;9.10;;
19038;SDS011;9652;49.014;12.052;2024-01-15T05:13:12;16.47;;;8.80;;
19038;SDS011;9652;49.014;12.052;2024-01-15T05:15:40;16.40;;;8.37;;
19038;SDS011;9652;49.014;12.052;2024-01-15T05:18:08;15.17;;;8.77;;
19038;SDS011;9652;49.014;12.052;2024-01-15T05:20:35;13.10;;;8.00;;
19038;SDS011;9652;49.014;12.052;2024-01-15T05:23:02;17.77;;;8.67;;
19038;SDS011;9652;49.014;12.052;2024-01-15T05:25:29;16.83;;;9.37;;
19038;SDS011;9652;49.014;12.052;2024-01-15T05:27:56;17.27;;;9.33;;
19038;SDS011;9652;49.014;12.052;2024-01-15T05:30:23;18.20;;;9.53;;
19038;SDS011;9652;49.014;12.052;2024-01-15T05:32:52;11.60;;;7.37;;
19038;SDS011;9652;49.014;12.052;2024-01-15T05:35:19;12.40;;;9.13;;
19038;SDS011;9652;49.014;12.052;2024-01-15T05:37:46;12.37;;;7.70;;
19038;SDS011;9652;49.014;12.052;2024-01-15T05:40:13;13.80;;;8.93;;
19038;SDS011;9652;49.014;12.052;2024-01-15T05:42:41;17.73;;;9.00;;
19038;SDS011;9652;49.014;12.052;2024-01-15T05:45:08;14.90;;;8.93;;
19038;SDS011;9652;49.014;12.052;2024-01-15T05:47:35;13.40;;;8.60;;
19038;SDS011;9652;49.014;12.052;2024-01-15T05:50:04;10.80;;;8.43;;
19038;SDS011;9652;49.014;12.052;2024-01-15T05:52:32;15.30;;;9.63;;
19038;SDS011;9652;49.014;12.052;2024-01-15T05:54:59;13.60;;;8.83;;
19038;SDS011;9652;49.014;12.052;2024-01-15T05:57:26;16.47;;;9.27;;
19038;SDS011;9652;49.014;12.052;2024-01-15T05:59:53;15.77;;;8.77;;
19038;SDS011;9652;49.014;12.052;2024-01-15T06:02:20;12.50;;;8.30;;
19038;SDS011;9652;49.014;12.052;2024-01-15T06:04:47;12.00;;;8.10;;
19038;SDS011;9652;49.014;12.052;2024-01-15T06:07:16;14.27;;;8.40;;
19038;SDS011;9652;49.014;12.052;2024-01-15T06:09:43;10.87;;;7.13;;
19038;SDS011;9652;49.014;12.052;2024-01-15T06:12:10;13.00;;;7.83;;
19038;SDS011;9652;49.014;12.052;2024-01-15T06:14:37;13.30;;;7.97;;
19038;SDS011;9652;49.014;12.052;2024-01-15T06:17:04;14.17;;;9.27;;
19038;SDS011;9652;49.014;12.052;2024-01-15T06:19:31;15.03;;;7.80;;
19038;SDS011;9652;49.014;12.052;2024-01-15T06:21:58;12.53;;;7.80;;
19038;SDS011;9652;49.014;12.052;2024-01-15T06:24:26;10.70;;;7.97;;
19038;SDS011;9652;49.014;12.052;2024-01-15T06:26:53;11.43;;;7.37;;
19038;SDS011;9652;49.014;12.052;2024-01-15T06:29:20;12.83;;;7.70;;
19038;SDS011;9652;49.014;12.052;2024-01-15T06:31:49;11.43;;;8.20;;
19038;SDS011;9652;49.014;12.052;2024-01-15T06:34:16;11.43;;;8.63;;
19038;SDS011;9652;49.014;12.052;2024-01-15T06:36:43;10.03;;;7.13;;
19038;SDS011;9652;49.014;12.052;2024-01-15T06:39:10;12.27;;;6.93;;
19038;SDS011;9652;49.014;12.052;2024-01-15T06:41:38;12.13;;;7.23;;
19038;SDS011;9652;49.014;12.052;2024-01-15T06:44:08;10.57;;;6.63;;
19038;SDS011;9652;49.014;12.052;2024-01-15T06:46:36;11.83;;;7.67;;
19038;SDS011;9652;49.014;12.052;2024-01-15T06:49:07;11.90;;;7.03;;
19038;SDS011;9652;49.014;12.052;2024-01-15T06:51:35;13.20;;;7.63;;
19038;SDS011;9652;49.014;12.052;2024-01-15T06:54:02;14.43;;;8.43;;
19038;SDS011;9652;49.014;12.052;2024-01-15T06:56:29;9.10;;;7.33;;
19038;SDS011;9652;49.014;12.052;2024-01-15T06:58:59;11.80;;;6.90;;
19038;SDS011;9652;49.014;12.052;2024-01-15T07:01:26;11.53;;;6.67;;
19038;SDS011;9652;49.014;12.052;2024-01-15T07:03:53;12.77;;;8.03;;
19038;SDS011;9652;49.014;12.052;2024-01-15T07:06:20;11.27;;;7.40;;
19038;SDS011;9652;49.014;12.052;2024-01-15T07:08:47;9.93;;;6.97;;
19038;SDS011;9652;49.014;12.052;2024-01-15T07:11:15;8.07;;;6.87;;
19038;SDS011;9652;49.014;12.052;2024-01-15T07:13:42;13.53;;;8.30;;
19038;SDS011;9652;49.014;12.052;2024-01-15T07:16:10;10.87;;;7.60;;
19038;SDS011;9652;49.014;12.052;2024-01-15T07:18:38;8.37;;;6.73;;
19038;SDS011;9652;49.014;12.052;2024-01-15T07:21:05;10.50;;;6.73;;
19038;SDS011;9652;49.014;12.052;2024-01-15T07:23:32;9.00;;;7.27;;
19038;SDS011;9652;49.014;12.052;2024-01-15T07:25:59;10.30;;;6.03;;
19038;SDS011;9652;49.014;12.052;2024-01-15T07:28:26;10.30;;;6.60;;
19038;SDS011;9652;49.014;12.052;2024-01-15T07:30:55;8.80;;;6.50;;
19038;SDS011;9652;49.014;12.052;2024-01-15T07:33:25;13.27;;;6.53;;
19038;SDS011;9652;49.014;12.052;2024-01-15T07:35:52;9.50;;;7.00;;
19038;SDS011;9652;49.014;12.052;2024-01-15T07:38:19;10.60;;;7.33;;
19038;SDS011;9652;49.014;12.052;2024-01-15T07:40:47;9.03;;;5.77;;
19038;SDS011;9652;49.014;12.052;2024-01-15T07:43:15;11.23;;;7.13;;
19038;SDS011;9652;49.014;12.052;2024-01-15T07:45:42;9.23;;;6.47;;
19038;SDS011;9652;49.014;12.052;2024-01-15T07:48:08;8.47;;;6.20;;
19038;SDS011;9652;49.014;12.052;2024-01-15T07:50:36;7.57;;;6.37;;
19038;SDS011;9652;49.014;12.052;2024-01-15T07:53:04;9.37;;;6.17;;
19038;SDS011;9652;49.014;12.052;2024-01-15T07:55:31;9.03;;;5.83;;
19038;SDS011;9652;49.014;12.052;2024-01-15T07:57:58;9.63;;;5.73;;
19038;SDS011;9652;49.014;12.052;2024-01-15T08:00:25;10.07;;;6.33;;
19038;SDS011;9652;49.014;12.052;2024-01-15T08:02:52;8.63;;;5.97;;
19038;SDS011;9652;49.014;12.052;2024-01-15T08:05:19;8.27;;;6.03;;
19038;SDS011;9652;49.014;12.052;2024-01-15T08:07:48;7.60;;;5.97;;
19038;SDS011;9652;49.014;12.052;2024-01-15T08:10:15;7.33;;;5.60;;
19038;SDS011;9652;49.014;12.052;2024-01-15T08:12:42;7.60;;;5.27;;
19038;SDS011;9652;49.014;12.052;2024-01-15T08:15:09;8.53;;;6.53;;
19038;SDS011;9652;49.014;12.052;2024-01-15T08:17:36;8.30;;;5.80;;
19038;SDS011;9652;49.014;12.052;2024-01-15T08:20:04;7.00;;;6.30;;
19038;SDS011;9652;49.014;12.052;2024-01-15T08:22:32;8.63;;;6.53;;
19038;SDS011;9652;49.014;12.052;2024-01-15T08:25:00;7.87;;;5.77;;
19038;SDS011;9652;49.014;12.052;2024-01-15T08:27:28;8.00;;;5.80;;
19038;SDS011;9652;49.014;12.052;2024-01-15T08:29:56;6.67;;;5.47;;
19038;SDS011;9652;49.014;12.052;2024-01-15T08:32:23;9.43;;;6.10;;
19038;SDS011;9652;49.014;12.052;2024-01-15T08:34:50;10.10;;;6.97;;
19038;SDS011;9652;49.014;12.052;2024-01-15T08:37:17;7.13;;;5.57;;
19038;SDS011;9652;49.014;12.052;2024-01-15T08:39:44;6.13;;;4.60;;
19038;SDS011;9652;49.014;12.052;2024-01-15T08:42:13;7.03;;;4.83;;
19038;SDS011;9652;49.014;12.052;2024-01-15T08:44:40;7.93;;;5.47;;
19038;SDS011;9652;49.014;12.052;2024-01-15T08:47:08;8.87;;;5.17;;
19038;SDS011;9652;49.014;12.052;2024-01-15T08:49:35;9.33;;;5.47;;
19038;SDS011;9652;49.014;12.052;2024-01-15T08:52:03;9.13;;;5.60;;
19038;SDS011;9652;49.014;12.052;2024-01-15T08:54:30;7.53;;;5.43;;
19038;SDS011;9652;49.014;12.052;2024-01-15T08:56:57;7.07;;;5.30;;
19038;SDS011;9652;49.014;12.052;2024-01-15T08:59:26;6.00;;;5.20;;
19038;SDS011;9652;49.014;12.052;2024-01-15T09:01:53;7.07;;;5.23;;
19038;SDS011;9652;49.014;12.052;2024-01-15T09:04:22;6.93;;;5.30;;
19038;SDS011;9652;49.014;12.052;2024-01-15T09:06:49;5.73;;;4.77;;
19038;SDS011;9652;49.014;12.052;2024-01-15T09:09:16;6.17;;;5.40;;
19038;SDS011;9652;49.014;12.052;2024-01-15T09:11:44;9.50;;;5.27;;
19038;SDS011;9652;49.014;12.052;2024-01-15T09:14:12;6.57;;;5.30;;
19038;SDS011;9652;49.014;12.052;2024-01-15T09:16:40;6.10;;;5.27;;
19038;SDS011;9652;49.014;12.052;2024-01-15T09:19:08;6.67;;;5.17;;
19038;SDS011;9652;49.014;12.052;2024-01-15T09:21:35;8.53;;;5.40;;
19038;SDS011;9652;49.014;12.052;2024-01-15T09:24:04;9.43;;;5.77;;
19038;SDS011;9652;49.014;12.052;2024-01-15T09:26:31;5.57;;;4.47;;
19038;SDS011;9652;49.014;12.052;2024-01-15T09:28:58;6.67;;;5.03;;
19038;SDS011;9652;49.014;12.052;2024-01-15T09:31:26;6.30;;;5.00;;
19038;SDS011;9652;49.014;12.052;2024-01-15T09:33:54;6.17;;;5.20;;
19038;SDS011;9652;49.014;12.052;2024-01-15T09:36:23;6.23;;;4.60;;
19038;SDS011;9652;49.014;12.052;2024-01-15T09:38:50;7.80;;;4.47;;
19038;SDS011;9652;49.014;12.052;2024-01-15T09:41:17;5.23;;;4.40;;
19038;SDS011;9652;49.014;12.052;2024-01-15T09:43:45;6.80;;;4.53;;
19038;SDS011;9652;49.014;12.052;2024-01-15T09:46:13;8.63;;;5.13;;
19038;SDS011;9652;49.014;12.052;2024-01-15T09:48:41;8.77;;;5.10;;
19038;SDS011;9652;49.014;12.052;2024-01-15T09:51:10;5.47;;;4.37;;
19038;SDS011;9652;49.014;12.052;2024-01-15T09:53:37;8.43;;;5.33;;
19038;SDS011;9652;49.014;12.052;2024-01-15T09:56:07;8.30;;;4.87;;
19038;SDS011;9652;49.014;12.052;2024-01-15T09:58:37;6.80;;;4.73;;
19038;SDS011;9652;49.014;12.052;2024-01-15T10:01:06;7.83;;;5.20;;
19038;SDS011;9652;49.014;12.052;2024-01-15T10:03:35;8.70;;;5.33;;
19038;SDS011;9652;49.014;12.052;2024-01-15T10:06:03;9.13;;;6.00;;
19038;SDS011;9652;49.014;12.052;2024-01-15T10:08:33;6.33;;;5.10;;
19038;SDS011;9652;49.014;12.052;2024-01-15T10:11:03;6.30;;;5.03;;
19038;SDS011;9652;49.014;12.052;2024-01-15T10:13:30;9.23;;;5.50;;
19038;SDS011;9652;49.014;12.052;2024-01-15T10:15:57;7.27;;;5.70;;
19038;SDS011;9652;49.014;12.052;2024-01-15T10:18:25;7.03;;;5.33;;
19038;SDS011;9652;49.014;12.052;2024-01-15T10:20:52;8.33;;;5.30;;
19038;SDS011;9652;49.014;12.052;2024-01-15T10:23:20;5.53;;;4.67;;
19038;SDS011;9652;49.014;12.052;2024-01-15T10:25:49;7.37;;;5.23;;
19038;SDS011;9652;49.014;12.052;2024-01-15T10:28:17;9.03;;;6.10;;
19038;SDS011;9652;49.014;12.052;2024-01-15T10:30:46;6.83;;;5.23;;
19038;SDS011;9652;49.014;12.052;2024-01-15T10:33:19;7.47;;;5.87;;
19038;SDS011;9652;49.014;12.052;2024-01-15T10:35:51;6.40;;;5.10;;
19038;SDS011;9652;49.014;12.052;2024-01-15T10:38:20;6.70;;;5.17;;
19038;SDS011;9652;49.014;12.052;2024-01-15T10:40:51;5.23;;;4.13;;
19038;SDS011;9652;49.014;12.052;2024-01-15T10:43:19;8.27;;;5.03;;
19038;SDS011;9652;49.014;12.052;2024-01-15T10:45:48;6.10;;;5.27;;
19038;SDS011;9652;49.014;12.052;2024-01-15T10:48:18;7.90;;;4.80;;
19038;SDS011;9652;49.014;12.052;2024-01-15T10:50:46;7.20;;;4.17;;
19038;SDS011;9652;49.014;12.052;2024-01-15T10:53:14;6.20;;;4.10;;
19038;SDS011;9652;49.014;12.052;2024-01-15T10:55:43;5.43;;;4.73;;
19038;SDS011;9652;49.014;12.052;2024-01-15T10:58:15;5.57;;;4.33;;
19038;SDS011;9652;49.014;12.052;2024-01-15T11:00:43;5.80;;;4.17;;
19038;SDS011;9652;49.014;12.052;2024-01-15T11:03:11;6.37;;;4.37;;
19038;SDS011;9652;49.014;12.052;2024-01-15T11:05:38;6.43;;;4.40;;
19038;SDS011;9652;49.014;12.052;2024-01-15T11:08:08;8.67;;;4.33;;
19038;SDS011;9652;49.014;12.052;2024-01-15T11:10:40;7.70;;;5.50;;
19038;SDS011;9652;49.014;12.052;2024-01-15T11:13:13;5.13;;;4.50;;
19038;SDS011;9652;49.014;12.052;2024-01-15T11:18:34;6.30;;;4.77;;
19038;SDS011;9652;49.014;12.052;2024-01-15T11:23:51;6.60;;;4.40;;
19038;SDS011;9652;49.014;12.052;2024-01-15T11:26:29;5.67;;;4.80;;
19038;SDS011;9652;49.014;12.052;2024-01-15T11:29:00;6.00;;;4.57;;
19038;SDS011;9652;49.014;12.052;2024-01-15T11:31:29;6.53;;;4.93;;
19038;SDS011;9652;49.014;12.052;2024-01-15T11:34:49;5.60;;;4.20;;
19038;SDS011;9652;49.014;12.052;2024-01-15T11:37:24;6.60;;;4.07;;
19038;SDS011;9652;49.014;12.052;2024-01-15T11:39:53;5.20;;;4.37;;
19038;SDS011;9652;49.014;12.052;2024-01-15T11:42:22;5.80;;;5.17;;
19038;SDS011;9652;49.014;12.052;2024-01-15T11:44:50;5.37;;;4.20;;
19038;SDS011;9652;49.014;12.052;2024-01-15T11:47:24;6.37;;;5.30;;
19038;SDS011;9652;49.014;12.052;2024-01-15T11:50:30;4.70;;;4.00;;
19038;SDS011;9652;49.014;12.052;2024-01-15T11:52:59;4.47;;;3.57;;
19038;SDS011;9652;49.014;12.052;2024-01-15T11:55:30;4.83;;;4.23;;
19038;SDS011;9652;49.014;12.052;2024-01-15T11:58:01;5.13;;;4.40;;
19038;SDS011;9652;49.014;12.052;2024-01-15T12:00:35;7.37;;;4.57;;
19038;SDS011;9652;49.014;12.052;2024-01-15T12:03:08;5.37;;;4.37;;
19038;SDS011;9652;49.014;12.052;2024-01-15T12:05:36;6.10;;;4.47;;
19038;SDS011;9652;49.014;12.052;2024-01-15T12:08:04;5.23;;;4.00;;
19038;SDS011;9652;49.014;12.052;2024-01-15T12:10:35;4.97;;;4.30;;
19038;SDS011;9652;49.014;12.052;2024-01-15T12:13:06;5.87;;;4.83;;
19038;SDS011;9652;49.014;12.052;2024-01-15T12:15:39;4.93;;;4.23;;
19038;SDS011;9652;49.014;12.052;2024-01-15T12:18:09;5.33;;;4.37;;
19038;SDS011;9652;49.014;12.052;2024-01-15T12:20:39;5.87;;;4.67;;
19038;SDS011;9652;49.014;12.052;2024-01-15T12:23:08;7.00;;;4.13;;
19038;SDS011;9652;49.014;12.052;2024-01-15T12:25:36;6.50;;;4.63;;
19038;SDS011;9652;49.014;12.052;2024-01-15T12:28:04;5.23;;;4.67;;
19038;SDS011;9652;49.014;12.052;2024-01-15T12:30:33;5.83;;;4.40;;
19038;SDS011;9652;49.014;12.052;2024-01-15T12:33:03;6.00;;;4.50;;
19038;SDS011;9652;49.014;12.052;2024-01-15T12:35:31;4.33;;;3.73;;
19038;SDS011;9652;49.014;12.052;2024-01-15T12:38:00;5.00;;;4.20;;
19038;SDS011;9652;49.014;12.052;2024-01-15T12:40:28;5.50;;;4.43;;
19038;SDS011;9652;49.014;12.052;2024-01-15T12:42:57;4.43;;;3.90;;
19038;SDS011;9652;49.014;12.052;2024-01-15T12:45:24;4.07;;;3.63;;
19038;SDS011;9652;49.014;12.052;2024-01-15T12:47:52;4.50;;;4.10;;
19038;SDS011;9652;49.014;12.052;2024-01-15T12:50:23;6.27;;;4.10;;
19038;SDS011;9652;49.014;12.052;2024-01-15T12:52:51;4.83;;;4.43;;
19038;SDS011;9652;49.014;12.052;2024-01-15T12:55:18;4.47;;;4.07;;
19038;SDS011;9652;49.014;12.052;2024-01-15T12:57:46;4.77;;;4.27;;
19038;SDS011;9652;49.014;12.052;2024-01-15T13:00:13;5.07;;;4.57;;
19038;SDS011;9652;49.014;12.052;2024-01-15T13:02:41;5.97;;;4.00;;
19038;SDS011;9652;49.014;12.052;2024-01-15T13:05:09;5.53;;;3.90;;
19038;SDS011;9652;49.014;12.052;2024-01-15T13:07:39;5.10;;;4.17;;
19038;SDS011;9652;49.014;12.052;2024-01-15T13:10:06;6.67;;;3.90;;
19038;SDS011;9652;49.014;12.052;2024-01-15T13:12:34;5.10;;;4.60;;
19038;SDS011;9652;49.014;12.052;2024-01-15T13:15:02;4.93;;;4.13;;
19038;SDS011;9652;49.014;12.052;2024-01-15T13:17:29;4.53;;;3.80;;
19038;SDS011;9652;49.014;12.052;2024-01-15T13:19:57;4.33;;;3.93;;
19038;SDS011;9652;49.014;12.052;2024-01-15T13:22:24;5.20;;;3.47;;
19038;SDS011;9652;49.014;12.052;2024-01-15T13:24:56;4.17;;;3.87;;
19038;SDS011;9652;49.014;12.052;2024-01-15T13:27:23;4.17;;;3.47;;
19038;SDS011;9652;49.014;12.052;2024-01-15T13:29:50;4.00;;;3.70;;
19038;SDS011;9652;49.014;12.052;2024-01-15T13:32:20;5.57;;;4.43;;
19038;SDS011;9652;49.014;12.052;2024-01-15T13:34:51;5.37;;;4.87;;
19038;SDS011;9652;49.014;12.052;2024-01-15T13:37:18;5.33;;;4.07;;
19038;SDS011;9652;49.014;12.052;2024-01-15T13:39:45;6.60;;;3.97;;
19038;SDS011;9652;49.014;12.052;2024-01-15T13:42:14;5.43;;;4.07;;
19038;SDS011;9652;49.014;12.052;2024-01-15T13:44:41;5.20;;;4.73;;
19038;SDS011;9652;49.014;12.052;2024-01-15T13:47:08;4.50;;;3.87;;
19038;SDS011;9652;49.014;12.052;2024-01-15T13:49:35;4.20;;;3.80;;
19038;SDS011;9652;49.014;12.052;2024-01-15T13:52:03;4.17;;;3.87;;
19038;SDS011;9652;49.014;12.052;2024-01-15T13:54:30;6.10;;;4.37;;
19038;SDS011;9652;49.014;12.052;2024-01-15T13:56:57;4.23;;;3.73;;
19038;SDS011;9652;49.014;12.052;2024-01-15T13:59:26;4.90;;;4.40;;
19038;SDS011;9652;49.014;12.052;2024-01-15T14:01:53;5.43;;;3.97;;
19038;SDS011;9652;49.014;12.052;2024-01-15T14:04:20;5.07;;;4.23;;
19038;SDS011;9652;49.014;12.052;2024-01-15T14:06:47;4.63;;;4.17;;
19038;SDS011;9652;49.014;12.052;2024-01-15T14:09:14;5.57;;;4.20;;
19038;SDS011;9652;49.014;12.052;2024-01-15T14:11:41;4.40;;;4.00;;
19038;SDS011;9652;49.014;12.052;2024-01-15T14:14:08;4.70;;;4.30;;
19038;SDS011;9652;49.014;12.052;2024-01-15T14:16:37;5.13;;;4.63;;
19038;SDS011;9652;49.014;12.052;2024-01-15T14:19:04;5.90;;;4.83;;
19038;SDS011;9652;49.014;12.052;2024-01-15T14:21:34;4.13;;;3.83;;
19038;SDS011;9652;49.014;12.052;2024-01-15T14:24:01;4.50;;;4.10;;
19038;SDS011;9652;49.014;12.052;2024-01-15T14:26:28;5.43;;;4.63;;
19038;SDS011;9652;49.014;12.052;2024-01-15T14:28:56;4.63;;;4.20;;
19038;SDS011;9652;49.014;12.052;2024-01-15T14:31:23;4.23;;;3.83;;
19038;SDS011;9652;49.014;12.052;2024-01-15T14:33:52;4.97;;;4.40;;
19038;SDS011;9652;49.014;12.052;2024-01-15T14:36:20;4.27;;;3.90;;
19038;SDS011;9652;49.014;12.052;2024-01-15T14:38:47;4.57;;;4.17;;
19038;SDS011;9652;49.014;12.052;2024-01-15T14:41:15;3.70;;;3.40;;
19038;SDS011;9652;49.014;12.052;2024-01-15T14:43:42;5.00;;;4.60;;
19038;SDS011;9652;49.014;12.052;2024-01-15T14:46:10;4.43;;;4.03;;
19038;SDS011;9652;49.014;12.052;2024-01-15T14:48:37;4.37;;;3.97;;